createdAt,value
2022-10-14T00:02:16.506Z,-70
2022-10-14T00:07:35.947Z,-70
2022-10-14T00:10:03.618Z,-70
2022-10-14T00:12:31.314Z,-70
2022-10-14T00:14:58.974Z,-70
2022-10-14T00:17:26.670Z,-69
2022-10-14T00:19:54.490Z,-69
2022-10-14T00:22:23.975Z,-69
2022-10-14T00:24:51.656Z,-69
2022-10-14T00:27:19.677Z,-69
2022-10-14T00:29:47.549Z,-69
2022-10-14T00:32:15.239Z,-69
2022-10-14T00:34:42.989Z,-69
2022-10-14T00:37:10.768Z,-69
2022-10-14T00:39:38.494Z,-69
2022-10-14T00:42:06.238Z,-69
2022-10-14T00:44:33.931Z,-69
2022-10-14T00:47:01.590Z,-70
2022-10-14T00:49:29.263Z,-68
2022-10-14T00:51:59.290Z,-68
2022-10-14T00:54:27.007Z,-69
2022-10-14T00:56:54.611Z,-69
2022-10-14T00:59:22.451Z,-70
2022-10-14T01:01:50.135Z,-69
2022-10-14T01:04:17.833Z,-70
2022-10-14T01:06:45.642Z,-70
2022-10-14T01:09:13.368Z,-70
2022-10-14T01:11:41.776Z,-70
2022-10-14T01:14:09.445Z,-69
2022-10-14T01:16:37.180Z,-70
2022-10-14T01:19:04.829Z,-69
2022-10-14T01:21:32.636Z,-69
2022-10-14T01:24:01.229Z,-69
2022-10-14T01:26:28.941Z,-70
2022-10-14T01:28:56.633Z,-70
2022-10-14T01:31:24.307Z,-69
2022-10-14T01:33:51.988Z,-70
2022-10-14T01:36:21.774Z,-69
2022-10-14T01:38:51.857Z,-69
2022-10-14T01:41:19.520Z,-69
2022-10-14T01:43:47.233Z,-70
2022-10-14T01:46:18.827Z,-85
2022-10-14T01:52:10.861Z,-85
2022-10-14T01:57:36.092Z,-70
2022-10-14T02:00:04.192Z,-69
2022-10-14T02:02:31.881Z,-69
2022-10-14T02:04:59.654Z,-68
2022-10-14T02:07:27.540Z,-67
2022-10-14T02:09:55.213Z,-68
2022-10-14T02:12:23.319Z,-69
2022-10-14T02:14:51.319Z,-68
2022-10-14T02:17:19.038Z,-68
2022-10-14T02:19:46.735Z,-69
2022-10-14T02:22:14.523Z,-69
2022-10-14T02:24:42.330Z,-68
2022-10-14T02:27:10.105Z,-69
2022-10-14T02:29:37.804Z,-68
2022-10-14T02:32:05.446Z,-68
2022-10-14T02:34:33.195Z,-68
2022-10-14T02:37:00.874Z,-68
2022-10-14T02:39:28.561Z,-69
2022-10-14T02:41:56.610Z,-68
2022-10-14T02:44:24.335Z,-68
2022-10-14T02:46:52.029Z,-68
2022-10-14T02:49:19.715Z,-69
2022-10-14T02:51:47.402Z,-68
2022-10-14T02:54:15.085Z,-68
2022-10-14T02:56:42.789Z,-69
2022-10-14T02:59:13.525Z,-68
2022-10-14T03:01:41.208Z,-68
2022-10-14T03:04:08.940Z,-68
2022-10-14T03:06:36.856Z,-68
2022-10-14T03:09:08.767Z,-69
2022-10-14T03:11:36.617Z,-68
2022-10-14T03:14:04.456Z,-69
2022-10-14T03:16:32.131Z,-68
2022-10-14T03:19:02.218Z,-68
2022-10-14T03:21:29.910Z,-69
2022-10-14T03:23:57.665Z,-68
2022-10-14T03:26:26.914Z,-68
2022-10-14T03:28:54.634Z,-68
2022-10-14T03:31:22.313Z,-68
2022-10-14T03:33:50.039Z,-68
2022-10-14T03:36:17.736Z,-68
2022-10-14T03:38:45.434Z,-68
2022-10-14T03:41:13.095Z,-68
2022-10-14T03:43:40.894Z,-68
2022-10-14T03:46:08.626Z,-68
2022-10-14T03:48:36.290Z,-68
2022-10-14T03:51:03.971Z,-69
2022-10-14T03:53:31.906Z,-68
2022-10-14T03:55:59.537Z,-69
2022-10-14T03:58:27.167Z,-69
2022-10-14T04:00:54.858Z,-69
2022-10-14T04:03:22.654Z,-69
2022-10-14T04:05:50.318Z,-68
2022-10-14T04:08:18.206Z,-67
2022-10-14T04:10:45.855Z,-68
2022-10-14T04:13:13.604Z,-69
2022-10-14T04:15:41.250Z,-68
2022-10-14T04:18:08.941Z,-69
2022-10-14T04:20:36.609Z,-68
2022-10-14T04:23:04.402Z,-68
2022-10-14T04:25:32.103Z,-68
2022-10-14T04:27:59.773Z,-70
2022-10-14T04:30:27.471Z,-69
2022-10-14T04:32:55.133Z,-70
2022-10-14T04:35:22.794Z,-69
2022-10-14T04:37:50.498Z,-70
2022-10-14T04:40:20.517Z,-70
2022-10-14T04:42:48.248Z,-70
2022-10-14T04:45:15.890Z,-69
2022-10-14T04:47:48.356Z,-69
2022-10-14T04:50:16.328Z,-68
2022-10-14T04:52:44.020Z,-70
2022-10-14T04:55:11.679Z,-71
2022-10-14T04:57:40.425Z,-71
2022-10-14T05:00:08.119Z,-71
2022-10-14T05:02:35.756Z,-71
2022-10-14T05:05:03.615Z,-71
2022-10-14T05:07:31.307Z,-71
2022-10-14T05:09:59.092Z,-71
2022-10-14T05:12:26.783Z,-71
2022-10-14T05:14:55.051Z,-71
2022-10-14T05:17:22.848Z,-71
2022-10-14T05:19:50.590Z,-71
2022-10-14T05:22:18.370Z,-71
2022-10-14T05:24:46.404Z,-71
2022-10-14T05:27:14.145Z,-71
2022-10-14T05:29:41.800Z,-71
2022-10-14T05:32:09.445Z,-71
2022-10-14T05:34:37.079Z,-71
2022-10-14T05:37:04.853Z,-71
2022-10-14T05:39:32.546Z,-71
2022-10-14T05:42:00.203Z,-71
2022-10-14T05:44:28.022Z,-71
2022-10-14T05:46:55.649Z,-71
2022-10-14T05:49:23.338Z,-71
2022-10-14T05:51:50.980Z,-71
2022-10-14T05:54:18.711Z,-71
2022-10-14T05:56:46.340Z,-71
2022-10-14T05:59:14.106Z,-71
2022-10-14T06:01:43.116Z,-71
2022-10-14T06:04:10.786Z,-71
2022-10-14T06:06:38.458Z,-71
2022-10-14T06:09:11.027Z,-71
2022-10-14T06:11:39.094Z,-71
2022-10-14T06:14:06.945Z,-71
2022-10-14T06:16:34.582Z,-71
2022-10-14T06:19:02.278Z,-71
2022-10-14T06:21:29.919Z,-71
2022-10-14T06:23:57.551Z,-71
2022-10-14T06:26:25.282Z,-71
2022-10-14T06:28:53.233Z,-70
2022-10-14T06:31:20.926Z,-72
2022-10-14T06:33:48.589Z,-72
2022-10-14T06:36:16.287Z,-72
2022-10-14T06:38:43.996Z,-72
2022-10-14T06:41:11.689Z,-72
2022-10-14T06:43:39.402Z,-71
2022-10-14T06:46:07.162Z,-72
2022-10-14T06:48:34.841Z,-71
2022-10-14T06:51:02.505Z,-71
2022-10-14T06:53:30.187Z,-72
2022-10-14T06:55:57.943Z,-69
2022-10-14T06:58:25.578Z,-72
2022-10-14T07:00:53.292Z,-72
2022-10-14T07:03:21.006Z,-72
2022-10-14T07:05:48.721Z,-71
2022-10-14T07:08:16.467Z,-71
2022-10-14T07:10:44.163Z,-71
2022-10-14T07:13:11.885Z,-71
2022-10-14T07:15:39.923Z,-71
2022-10-14T07:18:07.711Z,-72
2022-10-14T07:20:35.455Z,-71
2022-10-14T07:23:03.229Z,-71
2022-10-14T07:25:30.917Z,-71
2022-10-14T07:27:58.854Z,-71
2022-10-14T07:30:26.529Z,-71
2022-10-14T07:32:54.230Z,-71
2022-10-14T07:35:21.899Z,-71
2022-10-14T07:37:50.503Z,-71
2022-10-14T07:40:18.158Z,-71
2022-10-14T07:42:45.823Z,-71
2022-10-14T07:45:16.474Z,-70
2022-10-14T07:47:44.185Z,-70
2022-10-14T07:50:11.937Z,-70
2022-10-14T07:52:39.637Z,-70
2022-10-14T07:55:07.338Z,-70
2022-10-14T07:57:35.018Z,-70
2022-10-14T08:00:03.498Z,-70
2022-10-14T08:02:31.254Z,-70
2022-10-14T08:05:19.015Z,-70
2022-10-14T08:07:46.685Z,-70
2022-10-14T08:10:14.370Z,-70
2022-10-14T08:12:42.196Z,-70
2022-10-14T08:15:09.914Z,-70
2022-10-14T08:17:37.646Z,-70
2022-10-14T08:20:05.322Z,-70
2022-10-14T08:22:33.051Z,-70
2022-10-14T08:25:00.734Z,-70
2022-10-14T08:27:28.447Z,-70
2022-10-14T08:29:56.157Z,-70
2022-10-14T08:32:24.764Z,-70
2022-10-14T08:34:52.743Z,-70
2022-10-14T08:37:20.417Z,-70
2022-10-14T08:39:48.256Z,-70
2022-10-14T08:42:16.767Z,-70
2022-10-14T08:44:44.473Z,-70
2022-10-14T08:47:12.192Z,-70
2022-10-14T08:49:39.991Z,-70
2022-10-14T08:52:07.671Z,-70
2022-10-14T08:54:35.426Z,-70
2022-10-14T08:57:03.190Z,-70
2022-10-14T08:59:31.036Z,-70
2022-10-14T09:01:58.896Z,-70
2022-10-14T09:04:26.647Z,-70
2022-10-14T09:06:54.413Z,-70
2022-10-14T09:09:22.104Z,-70
2022-10-14T09:11:49.817Z,-70
2022-10-14T09:14:17.497Z,-70
2022-10-14T09:16:50.373Z,-70
2022-10-14T09:19:21.114Z,-70
2022-10-14T09:21:52.658Z,-70
2022-10-14T09:24:21.142Z,-70
2022-10-14T09:26:48.989Z,-70
2022-10-14T09:29:16.719Z,-70
2022-10-14T09:31:44.406Z,-70
2022-10-14T09:34:12.109Z,-70
2022-10-14T09:36:39.820Z,-70
2022-10-14T09:39:07.654Z,-70
2022-10-14T09:41:35.337Z,-70
2022-10-14T09:44:03.021Z,-70
2022-10-14T09:46:30.658Z,-70
2022-10-14T09:48:58.457Z,-70
2022-10-14T09:51:26.211Z,-70
2022-10-14T09:53:53.926Z,-70
2022-10-14T09:56:21.633Z,-70
2022-10-14T09:58:51.105Z,-70
2022-10-14T10:01:19.110Z,-70
2022-10-14T10:03:46.980Z,-70
2022-10-14T10:06:14.785Z,-70
2022-10-14T10:08:42.554Z,-70
2022-10-14T10:11:11.195Z,-70
2022-10-14T10:13:40.525Z,-70
2022-10-14T10:16:08.248Z,-70
2022-10-14T10:18:35.930Z,-70
2022-10-14T10:21:06.443Z,-70
2022-10-14T10:23:34.988Z,-70
2022-10-14T10:26:03.228Z,-70
2022-10-14T10:28:32.214Z,-70
2022-10-14T10:30:59.965Z,-70
2022-10-14T10:33:27.666Z,-70
2022-10-14T10:35:55.688Z,-70
2022-10-14T10:38:23.474Z,-70
2022-10-14T10:40:51.354Z,-70
2022-10-14T10:43:19.901Z,-70
2022-10-14T10:45:47.591Z,-69
2022-10-14T10:48:15.299Z,-70
2022-10-14T10:50:43.017Z,-69
2022-10-14T10:53:10.776Z,-69
2022-10-14T10:55:38.539Z,-70
2022-10-14T10:58:09.066Z,-69
2022-10-14T11:00:37.838Z,-70
2022-10-14T11:03:05.597Z,-70
2022-10-14T11:05:33.278Z,-70
2022-10-14T11:08:18.892Z,-70
2022-10-14T11:11:04.458Z,-70
2022-10-14T11:13:33.187Z,-69
2022-10-14T11:16:01.250Z,-69
2022-10-14T11:18:28.990Z,-69
2022-10-14T11:20:56.794Z,-69
2022-10-14T11:23:24.513Z,-69
2022-10-14T11:25:52.538Z,-69
2022-10-14T11:28:20.310Z,-69
2022-10-14T11:30:49.358Z,-70
2022-10-14T11:33:17.105Z,-69
2022-10-14T11:35:44.865Z,-69
2022-10-14T11:38:12.507Z,-69
2022-10-14T11:40:40.385Z,-69
2022-10-14T11:43:08.107Z,-69
2022-10-14T11:45:35.873Z,-70
2022-10-14T11:48:03.594Z,-69
2022-10-14T11:50:31.248Z,-69
2022-10-14T11:52:58.950Z,-69
2022-10-14T11:55:29.206Z,-70
2022-10-14T11:57:58.293Z,-70
2022-10-14T12:02:54.583Z,-69
2022-10-14T12:05:22.268Z,-69
2022-10-14T12:07:49.932Z,-70
2022-10-14T12:10:17.624Z,-70
2022-10-14T12:12:45.327Z,-70
2022-10-14T12:15:13.010Z,-70
2022-10-14T12:17:40.708Z,-70
2022-10-14T12:20:08.430Z,-70
2022-10-14T12:22:36.264Z,-70
2022-10-14T12:25:03.939Z,-70
2022-10-14T12:27:31.713Z,-70
2022-10-14T12:29:59.413Z,-70
2022-10-14T12:32:27.613Z,-70
2022-10-14T12:34:55.430Z,-70
2022-10-14T12:37:27.281Z,-70
2022-10-14T12:39:58.396Z,-70
2022-10-14T12:42:26.331Z,-70
2022-10-14T12:44:56.132Z,-70
2022-10-14T12:47:24.055Z,-70
2022-10-14T12:49:52.130Z,-70
2022-10-14T12:52:19.882Z,-70
2022-10-14T12:54:47.688Z,-72
2022-10-14T12:57:15.495Z,-70
2022-10-14T12:59:43.209Z,-71
2022-10-14T13:02:11.009Z,-70
2022-10-14T13:04:38.695Z,-70
2022-10-14T13:07:11.675Z,-70
2022-10-14T13:09:39.742Z,-70
2022-10-14T13:12:07.455Z,-70
2022-10-14T13:14:35.585Z,-70
2022-10-14T13:17:03.275Z,-70
2022-10-14T13:19:30.959Z,-70
2022-10-14T13:21:59.184Z,-70
2022-10-14T13:24:27.119Z,-70
2022-10-14T13:26:55.078Z,-70
2022-10-14T13:29:22.756Z,-70
2022-10-14T13:31:50.562Z,-70
2022-10-14T13:34:18.283Z,-70
2022-10-14T13:36:46.003Z,-70
2022-10-14T13:39:13.916Z,-70
2022-10-14T13:41:42.256Z,-70
2022-10-14T13:44:10.652Z,-70
2022-10-14T13:46:38.446Z,-83
2022-10-14T13:49:06.243Z,-83
2022-10-14T13:51:37.656Z,-83
2022-10-14T13:54:08.076Z,-80
2022-10-14T13:56:36.014Z,-80
2022-10-14T13:59:08.050Z,-80
2022-10-14T14:01:44.901Z,-80
2022-10-14T14:04:12.790Z,-80
2022-10-14T14:06:52.323Z,-79
2022-10-14T14:09:28.107Z,-81
2022-10-14T14:11:55.997Z,-81
2022-10-14T14:14:23.726Z,-81
2022-10-14T14:16:51.997Z,-80
2022-10-14T14:19:19.687Z,-81
2022-10-14T14:21:47.620Z,-81
2022-10-14T14:24:15.549Z,-81
2022-10-14T14:26:43.293Z,-81
2022-10-14T14:29:11.154Z,-82
2022-10-14T14:32:05.044Z,-81
2022-10-14T14:34:26.733Z,-81
2022-10-14T14:36:58.086Z,-81
2022-10-14T14:39:33.732Z,-81
2022-10-14T14:42:02.155Z,-82
2022-10-14T14:44:29.934Z,-81
2022-10-14T14:46:57.649Z,-82
2022-10-14T14:49:25.359Z,-82
2022-10-14T14:51:53.279Z,-82
2022-10-14T14:54:21.244Z,-82
2022-10-14T14:56:48.946Z,-82
2022-10-14T14:59:16.840Z,-81
2022-10-14T15:01:44.651Z,-81
2022-10-14T15:04:14.593Z,-81
2022-10-14T15:06:53.550Z,-81
2022-10-14T15:09:21.311Z,-82
2022-10-14T15:11:49.593Z,-81
2022-10-14T15:14:20.105Z,-81
2022-10-14T15:16:51.163Z,-83
2022-10-14T15:19:18.936Z,-83
2022-10-14T15:21:47.878Z,-84
2022-10-14T15:24:25.916Z,-85
2022-10-14T15:27:13.868Z,-82
2022-10-14T15:30:03.127Z,-82
2022-10-14T15:32:31.205Z,-82
2022-10-14T15:34:59.564Z,-82
2022-10-14T15:37:27.214Z,-80
2022-10-14T15:39:54.999Z,-81
2022-10-14T15:42:23.599Z,-81
2022-10-14T15:44:51.620Z,-81
2022-10-14T15:47:22.372Z,-82
2022-10-14T15:49:50.466Z,-81
2022-10-14T15:52:20.392Z,-81
2022-10-14T15:54:50.887Z,-82
2022-10-14T15:57:18.557Z,-81
2022-10-14T15:59:46.234Z,-81
2022-10-14T16:02:13.937Z,-80
2022-10-14T16:05:00.688Z,-81
2022-10-14T16:07:29.242Z,-82
2022-10-14T16:09:58.973Z,-81
2022-10-14T16:12:26.645Z,-81
2022-10-14T16:14:54.537Z,-81
2022-10-14T16:17:22.404Z,-82
2022-10-14T16:19:50.189Z,-81
2022-10-14T16:22:17.876Z,-82
2022-10-14T16:24:46.284Z,-82
2022-10-14T16:27:13.956Z,-82
2022-10-14T16:29:41.601Z,-82
2022-10-14T16:32:09.614Z,-81
2022-10-14T16:34:37.263Z,-81
2022-10-14T16:37:07.050Z,-81
2022-10-14T16:39:34.853Z,-82
2022-10-14T16:42:02.803Z,-82
2022-10-14T16:44:30.497Z,-81
2022-10-14T16:47:15.875Z,-81
2022-10-14T16:49:43.492Z,-82
2022-10-14T16:52:11.111Z,-81
2022-10-14T16:54:38.904Z,-82
2022-10-14T16:57:06.760Z,-82
2022-10-14T16:59:34.406Z,-82
2022-10-14T17:02:02.016Z,-82
2022-10-14T17:04:29.619Z,-81
2022-10-14T17:06:57.548Z,-82
2022-10-14T17:11:57.965Z,-83
2022-10-14T17:14:25.683Z,-81
2022-10-14T17:16:53.428Z,-81
2022-10-14T17:19:21.201Z,-80
2022-10-14T17:21:49.095Z,-80
2022-10-14T17:24:17.129Z,-79
2022-10-14T17:26:45.407Z,-80
2022-10-14T17:29:13.142Z,-80
2022-10-14T17:31:41.607Z,-80
2022-10-14T17:34:09.305Z,-80
2022-10-14T17:36:36.925Z,-80
2022-10-14T17:39:05.010Z,-80
2022-10-14T17:41:32.605Z,-80
2022-10-14T17:44:01.284Z,-80
2022-10-14T17:46:29.450Z,-80
2022-10-14T17:48:57.580Z,-82
2022-10-14T17:51:25.570Z,-82
2022-10-14T17:53:53.240Z,-82
2022-10-14T17:56:21.210Z,-82
2022-10-14T17:58:49.064Z,-82
2022-10-14T18:01:16.841Z,-82
2022-10-14T18:03:44.621Z,-82
2022-10-14T18:06:12.309Z,-82
2022-10-14T18:08:40.335Z,-82
2022-10-14T18:11:11.090Z,-82
2022-10-14T18:16:07.627Z,-83
2022-10-14T18:18:35.747Z,-82
2022-10-14T18:21:04.680Z,-82
2022-10-14T18:23:32.530Z,-82
2022-10-14T18:26:00.606Z,-81
2022-10-14T18:28:28.316Z,-81
2022-10-14T18:30:55.998Z,-82
2022-10-14T18:33:23.927Z,-82
2022-10-14T18:35:52.586Z,-82
2022-10-14T18:38:20.247Z,-82
2022-10-14T18:40:47.945Z,-82
2022-10-14T18:43:15.637Z,-81
2022-10-14T18:45:43.402Z,-82
2022-10-14T18:48:11.643Z,-82
2022-10-14T18:50:39.336Z,-82
2022-10-14T18:53:07.287Z,-81
2022-10-14T18:55:34.958Z,-80
2022-10-14T18:58:02.650Z,-82
2022-10-14T19:00:30.345Z,-82
2022-10-14T19:02:58.104Z,-82
2022-10-14T19:05:28.556Z,-81
2022-10-14T19:08:00.328Z,-82
2022-10-14T19:10:28.023Z,-82
2022-10-14T19:12:55.936Z,-81
2022-10-14T19:15:26.181Z,-81
2022-10-14T19:17:54.634Z,-81
2022-10-14T19:20:22.465Z,-82
2022-10-14T19:22:54.236Z,-82
2022-10-14T19:25:24.125Z,-82
2022-10-14T19:27:51.767Z,-82
2022-10-14T19:30:19.547Z,-82
2022-10-14T19:32:47.236Z,-82
2022-10-14T19:49:33.565Z,-82
2022-10-14T19:52:01.486Z,-82
2022-10-14T19:54:29.265Z,-82
2022-10-14T19:56:56.970Z,-82
2022-10-14T19:59:25.050Z,-80
2022-10-14T20:01:52.969Z,-80
2022-10-14T20:04:25.164Z,-79
2022-10-14T20:06:55.382Z,-80
2022-10-14T20:09:23.250Z,-80
2022-10-14T20:11:51.114Z,-80
2022-10-14T20:14:19.048Z,-80
2022-10-14T20:16:46.794Z,-82
2022-10-14T20:19:14.766Z,-80
2022-10-14T20:21:42.597Z,-81
2022-10-14T20:24:10.501Z,-81
2022-10-14T20:26:38.453Z,-81
2022-10-14T20:29:06.365Z,-80
2022-10-14T20:31:34.190Z,-80
2022-10-14T20:34:02.937Z,-80
2022-10-14T20:36:32.060Z,-80
2022-10-14T20:38:59.986Z,-81
2022-10-14T20:41:27.986Z,-79
2022-10-14T20:43:56.128Z,-81
2022-10-14T20:46:25.104Z,-80
2022-10-14T20:48:53.348Z,-81
2022-10-14T20:51:22.917Z,-81
2022-10-14T20:53:50.712Z,-81
2022-10-14T20:56:18.609Z,-81
2022-10-14T20:58:46.387Z,-81
2022-10-14T21:01:14.146Z,-80
2022-10-14T21:03:42.009Z,-81
2022-10-14T21:06:09.882Z,-79
2022-10-14T21:08:37.789Z,-79
2022-10-14T21:11:07.030Z,-80
2022-10-14T21:13:36.928Z,-81
2022-10-14T21:16:04.803Z,-81
2022-10-14T21:18:32.673Z,-81
2022-10-14T21:21:00.418Z,-81
2022-10-14T21:23:28.129Z,-82
2022-10-14T21:25:56.168Z,-82
2022-10-14T21:28:23.939Z,-81
2022-10-14T21:30:51.843Z,-82
2022-10-14T21:33:19.525Z,-82
2022-10-14T21:35:47.239Z,-82
2022-10-14T21:38:15.014Z,-82
2022-10-14T21:40:42.768Z,-82
2022-10-14T21:43:10.601Z,-82
2022-10-14T21:45:38.379Z,-83
2022-10-14T21:48:06.288Z,-82
2022-10-14T21:50:34.034Z,-82
2022-10-14T21:53:01.930Z,-82
2022-10-14T21:55:29.739Z,-82
2022-10-14T21:57:57.655Z,-81
2022-10-14T22:00:25.597Z,-82
2022-10-14T22:02:53.490Z,-82
2022-10-14T22:05:21.256Z,-81
2022-10-14T22:07:49.074Z,-81
2022-10-14T22:10:31.038Z,-81
2022-10-14T22:12:58.978Z,-83
2022-10-14T22:15:26.867Z,-82
2022-10-14T22:17:55.554Z,-81
2022-10-14T22:20:23.369Z,-82
2022-10-14T22:22:51.257Z,-82
2022-10-14T22:25:19.242Z,-83
2022-10-14T22:27:47.605Z,-81
2022-10-14T22:30:15.371Z,-82
2022-10-14T22:32:43.090Z,-81
2022-10-14T22:35:10.807Z,-81
2022-10-14T22:37:38.498Z,-80
2022-10-14T22:40:06.423Z,-81
2022-10-14T22:42:35.252Z,-81
2022-10-14T22:45:04.797Z,-81
2022-10-14T22:47:32.866Z,-82
2022-10-14T22:50:00.964Z,-81
2022-10-14T22:52:28.714Z,-81
2022-10-14T22:54:56.522Z,-82
2022-10-14T22:57:24.252Z,-82
2022-10-14T22:59:52.085Z,-83
2022-10-14T23:02:20.053Z,-82
2022-10-14T23:04:48.058Z,-82
2022-10-14T23:07:15.989Z,-81
2022-10-14T23:09:43.672Z,-81
2022-10-14T23:12:11.757Z,-81
2022-10-14T23:14:39.523Z,-81
2022-10-14T23:17:07.275Z,-81
2022-10-14T23:19:35.202Z,-81
2022-10-14T23:22:02.940Z,-82
2022-10-14T23:24:30.824Z,-82
2022-10-14T23:26:58.762Z,-82
2022-10-14T23:29:26.472Z,-82
2022-10-14T23:31:56.916Z,-81
2022-10-14T23:34:24.734Z,-81
2022-10-14T23:36:52.525Z,-80
2022-10-14T23:39:20.277Z,-82
2022-10-14T23:41:47.994Z,-82
2022-10-14T23:44:15.876Z,-82
2022-10-14T23:46:43.884Z,-81
2022-10-14T23:49:25.723Z,-81
2022-10-14T23:51:54.038Z,-82
2022-10-14T23:54:21.992Z,-82
2022-10-14T23:56:49.903Z,-82
2022-10-14T23:59:17.713Z,-81
